Latest Weather Observations for Bairnsdale

IDV60801

Issued at 11:02 pm EST Tuesday 21 April 2015 (issued every 30 minutes, with the page automatically refreshed every 10 minutes)

About weather observations | Map of weather stations | Latest weather observations for VIC | Other Formats
Station Details ID: 085279 Name: BAIRNSDALE AIRPORT Lat: -37.88 Lon: 147.57 Height: 49.4 m
Data from the previous 72 hours. | See also: Recent months at Bairnsdale
Date/Time
EST
Temp
°C
App
Temp
°C
Dew
Point
Rel
Hum
%
Delta-T
°C
Wind Press
QNH
hPa
Press
MSL
hPa
Rain
since 9 am
mm
Dir
 
Spd
km/h
Gust
km/h
Spd
kts
Gust
kts
21/11:00pm 11.5 9.9 11.5 100 0.0 WNW 11 15 6 8 1028.5 1028.5 0.2
21/10:30pm 11.5 9.9 11.5 100 0.0 WNW 11 15 6 8 1029.0 1029.0 0.2
21/10:00pm 11.4 9.4 11.4 100 0.0 WNW 13 17 7 9 1029.5 1029.4 0.2
21/09:30pm 11.5 9.9 11.5 100 0.0 NW 11 15 6 8 1029.8 1029.7 0.2
21/09:00pm 11.6 10.4 11.6 100 0.0 NW 9 11 5 6 1029.7 1029.6 0.0
21/08:30pm 11.6 10.4 11.6 100 0.0 NW 9 11 5 6 1029.7 1029.6 0.0
21/08:00pm 11.6 10.6 11.1 97 0.3 NNW 7 9 4 5 1029.9 1029.8 0.0
21/07:30pm 12.3 9.2 10.2 87 1.1 ENE 17 22 9 12 1030.2 1030.1 0.0
21/07:00pm 13.7 11.1 9.2 74 2.3 SE 13 17 7 9 1030.2 1030.1 0.0
21/06:30pm 14.0 10.5 8.8 71 2.6 SE 17 24 9 13 1030.0 1029.9 0.0
21/06:00pm 14.2 11.9 9.0 71 2.6 S 11 17 6 9 1029.7 1029.6 0.0
21/05:30pm 14.4 11.0 9.0 70 2.8 S 17 20 9 11 1029.6 1029.5 0.0
21/05:00pm 14.4 11.3 8.8 69 2.8 S 15 19 8 10 1029.6 1029.5 0.0
21/04:30pm 15.1 11.1 8.3 64 3.4 SSE 19 28 10 15 1029.7 1029.6 0.0
21/04:00pm 15.1 11.4 8.1 63 3.5 SSE 17 24 9 13 1029.8 1029.7 0.0
21/03:30pm 15.3 11.0 6.8 57 4.2 SSE 19 28 10 15 1030.0 1029.9 0.0
21/03:00pm 16.1 11.8 7.1 55 4.4 SE 19 24 10 13 1030.0 1029.9 0.0
21/02:30pm 16.4 12.1 6.8 53 4.7 SSE 19 26 10 14 1029.9 1029.8 0.0
21/02:00pm 16.3 11.9 7.3 55 4.5 S 20 28 11 15 1030.0 1029.9 0.0
21/01:30pm 15.8 11.0 5.4 50 5.0 SE 20 24 11 13 1030.5 1030.4 0.0
21/01:00pm 15.6 11.5 6.1 53 4.6 SSE 17 26 9 14 1030.6 1030.5 0.0
21/12:30pm 15.7 12.3 5.9 52 4.7 SSE 13 20 7 11 1031.1 1031.0 0.0
21/12:00pm 16.3 12.2 6.2 51 4.9 SSE 17 24 9 13 1031.5 1031.4 0.0
21/11:30am 15.6 12.7 6.3 54 4.5 SSE 11 20 6 11 1031.8 1031.7 0.0
21/11:00am 15.3 13.3 8.8 65 3.3 SSW 9 17 5 9 1032.2 1032.1 0.0
21/10:30am 14.1 12.0 8.1 67 3.0 SW 9 13 5 7 1032.5 1032.4 0.0
21/10:00am 13.4 11.2 8.0 70 2.7 SW 9 13 5 7 1032.9 1032.9 0.0
21/09:30am 12.0 9.7 7.3 73 2.3 W 9 13 5 7 1033.1 1033.1 0.0
21/09:00am 10.9 8.1 7.0 77 1.8 W 11 15 6 8 1033.5 1033.5 1.2
21/08:30am 9.6 6.2 6.1 79 1.6 W 13 19 7 10 1033.5 1033.5 1.2
21/08:00am 8.2 4.8 5.8 85 1.1 NW 13 19 7 10 1033.5 1033.5 1.2
21/07:30am 6.5 2.5 4.7 88 0.8 WNW 15 19 8 10 1033.2 1033.2 1.2
21/07:00am 5.2 1.4 4.0 92 0.5 WNW 13 17 7 9 1033.2 1033.2 1.2
21/06:30am 5.4 2.1 4.4 93 0.4 WNW 11 15 6 8 1033.2 1033.2 1.2
21/06:00am 4.9 1.1 3.7 92 0.5 WNW 13 15 7 8 1033.1 1033.1 1.2
21/05:30am 4.8 1.0 3.8 93 0.4 WNW 13 13 7 7 1032.9 1032.9 1.2
21/05:00am 5.6 2.6 4.1 90 0.6 WNW 9 13 5 7 1032.7 1032.6 1.2
21/04:30am 6.4 3.1 4.7 89 0.7 W 11 13 6 7 1032.6 1032.5 1.2
21/04:00am 6.7 3.5 4.9 88 0.8 W 11 15 6 8 1032.5 1032.4 1.2
21/03:30am 6.8 4.0 5.0 88 0.8 W 9 11 5 6 1032.6 1032.5 1.2
21/03:00am 6.7 3.1 4.9 88 0.8 W 13 17 7 9 1032.6 1032.5 1.2
21/02:30am 6.8 3.2 5.1 89 0.7 NW 13 17 7 9 1032.8 1032.7 1.2
21/02:00am 6.4 3.7 5.4 93 0.4 NW 9 11 5 6 1033.1 1033.1 1.2
21/01:30am 6.0 3.6 5.1 94 0.4 NW 7 9 4 5 1033.5 1033.5 1.2
21/01:00am 6.8 4.4 5.3 90 0.7 WNW 7 9 4 5 1033.8 1033.8 1.2
21/12:30am 8.1 5.1 6.2 88 0.9 SW 11 13 6 7 1034.1 1034.1 1.2
21/12:00am 6.7 3.1 4.9 88 0.8 SW 13 15 7 8 1034.1 1034.1 1.2
 
Date/Time
EST
Temp
°C
App
Temp
°C
Dew
Point
Rel
Hum
%
Delta-T
°C
Wind Press
QNH
hPa
Press
MSL
hPa
Rain
since 9 am
mm
Dir
 
Spd
km/h
Gust
km/h
Spd
kts
Gust
kts
20/11:30pm 6.3 3.9 5.1 92 0.5 WSW 7 11 4 6 1034.1 1034.1 1.2
20/11:00pm 6.0 3.0 4.3 89 0.7 SW 9 11 5 6 1034.3 1034.3 1.2
20/10:30pm 6.8 3.5 4.8 87 0.9 SW 11 13 6 7 1034.4 1034.4 1.2
20/10:00pm 7.3 3.7 4.9 85 1.0 SW 13 15 7 8 1034.6 1034.6 1.2
20/09:30pm 7.8 4.3 5.4 85 1.1 SW 13 15 7 8 1034.7 1034.7 1.2
20/09:00pm 7.5 4.7 5.3 86 1.0 SW 9 11 5 6 1034.8 1034.8 1.2
20/08:30pm 7.7 4.2 5.5 86 1.0 SSW 13 15 7 8 1034.7 1034.7 1.2
20/08:00pm 9.1 5.4 6.5 84 1.2 S 15 17 8 9 1034.8 1034.8 1.2
20/07:30pm 10.3 7.3 7.5 83 1.3 S 13 15 7 8 1034.7 1034.7 1.2
20/07:00pm 11.1 7.5 8.5 84 1.3 SSE 17 22 9 12 1034.7 1034.7 1.2
20/06:30pm 11.4 8.4 7.7 78 1.8 S 13 17 7 9 1034.6 1034.6 0.8
20/06:00pm 10.7 7.1 6.6 76 1.9 SSW 15 17 8 9 1034.2 1034.2 0.8
20/05:30pm 12.0 8.4 6.7 70 2.5 S 15 17 8 9 1034.2 1034.2 0.8
20/05:00pm 13.2 9.4 7.4 68 2.8 SSE 17 22 9 12 1034.1 1034.1 0.8
20/04:30pm 14.3 9.7 8.0 66 3.1 SSE 22 32 12 17 1033.9 1033.9 0.8
20/04:00pm 14.3 9.5 7.4 63 3.4 SSE 22 32 12 17 1033.8 1033.8 0.8
20/03:30pm 15.0 10.1 6.8 58 4.0 SSE 22 30 12 16 1033.8 1033.8 0.8
20/03:00pm 14.2 8.9 6.8 61 3.6 SSE 24 33 13 18 1033.8 1033.8 0.8
20/02:30pm 14.9 9.8 7.7 62 3.6 S 24 35 13 19 1034.1 1034.1 0.8
20/02:00pm 14.7 9.8 8.4 66 3.1 S 24 33 13 18 1034.1 1034.1 0.8
20/01:30pm 14.7 10.2 8.4 66 3.2 S 22 33 12 18 1034.3 1034.3 0.8
20/01:00pm 11.8 10.4 9.4 85 1.2 NNE 7 13 4 7 1034.7 1034.7 0.8
20/12:45pm 11.2 8.6 9.3 88 1.0 NNE 13 37 7 20 1034.9 1034.9 0.8
20/12:34pm 10.6 5.2 8.2 85 1.2 ENE 26 50 14 27 1035.1 1035.1 0.8
20/12:30pm 11.6 5.9 8.5 81 1.5 ESE 28 50 15 27 1035.1 1035.1 0.8
20/12:29pm 11.6 5.9 8.3 80 1.6 SE 28 50 15 27 1035.1 1035.1 0.8
20/12:26pm 11.6 5.7 7.7 77 1.9 SSE 28 50 15 27 1035.1 1035.1 0.2
20/12:00pm 14.3 11.8 8.0 66 3.1 SSW 11 22 6 12 1035.1 1035.1 0.0
20/11:30am 13.7 11.0 9.0 73 2.4 NNW 13 17 7 9 1035.6 1035.6 0.0
20/11:00am 13.1 10.7 8.8 75 2.1 NNW 11 17 6 9 1036.0 1036.0 0.0
20/10:30am 12.1 9.1 7.8 75 2.1 WNW 13 17 7 9 1036.0 1036.0 0.0
20/10:00am 10.8 7.2 6.9 77 1.8 WNW 15 19 8 10 1036.1 1036.1 0.0
20/09:30am 10.0 6.2 7.6 85 1.2 NW 17 20 9 11 1036.1 1036.1 0.0
20/09:00am 8.5 5.2 6.3 86 1.0 NW 13 20 7 11 1036.4 1036.4 4.0
20/08:30am 8.0 4.6 6.1 88 0.9 WNW 13 17 7 9 1036.5 1036.5 4.0
20/08:00am 7.7 3.5 5.8 88 0.8 WNW 17 20 9 11 1036.2 1036.2 4.0
20/07:30am 6.9 3.4 5.5 91 0.6 NNW 13 17 7 9 1036.0 1036.0 3.8
20/07:00am 6.5 2.1 5.0 90 0.6 WNW 17 22 9 12 1035.4 1035.4 3.8
20/06:30am 6.9 2.6 5.4 90 0.7 WNW 17 22 9 12 1035.2 1035.2 3.8
20/06:00am 6.6 2.8 5.6 93 0.4 W 15 19 8 10 1035.0 1035.0 3.6
20/05:30am 6.0 1.6 5.0 93 0.4 WNW 17 20 9 11 1034.5 1034.5 3.4
20/05:00am 6.3 1.6 5.3 93 0.4 WNW 19 24 10 13 1034.0 1034.0 3.4
20/04:30am 6.1 1.8 5.1 93 0.4 NW 17 20 9 11 1034.1 1034.1 3.4
20/04:00am 5.8 1.3 4.4 91 0.6 NW 17 20 9 11 1033.5 1033.5 3.2
20/03:30am 6.3 2.2 4.6 89 0.7 NW 15 19 8 10 1033.3 1033.3 3.2
20/03:00am 6.8 2.7 4.3 84 1.1 WSW 15 19 8 10 1033.7 1033.7 3.2
20/02:30am 6.7 3.4 4.7 87 0.9 WSW 11 13 6 7 1034.1 1034.1 3.2
20/02:00am 5.2 1.4 3.7 90 0.6 WNW 13 15 7 8 1033.8 1033.8 3.2
20/01:30am 5.7 1.5 3.7 87 0.8 NW 15 17 8 9 1033.9 1033.9 3.2
20/01:00am 6.5 1.9 3.8 83 1.1 WNW 17 19 9 10 1033.9 1033.9 3.2
20/12:45am 6.6 2.9 4.3 85 1.0 NW 13 19 7 10 1034.0 1034.0 3.2
20/12:30am 6.9 3.6 4.6 85 1.0 N 11 19 6 10 1034.1 1034.1 3.2
20/12:26am 7.1 3.4 4.4 83 1.2 ENE 13 19 7 10 1034.1 1034.1 3.0
20/12:00am 6.3 2.8 3.6 83 1.1 NW 11 13 6 7 1033.7 1033.7 2.4
 
Date/Time
EST
Temp
°C
App
Temp
°C
Dew
Point
Rel
Hum
%
Delta-T
°C
Wind Press
QNH
hPa
Press
MSL
hPa
Rain
since 9 am
mm
Dir
 
Spd
km/h
Gust
km/h
Spd
kts
Gust
kts
19/11:30pm 6.5 2.5 3.1 79 1.4 WNW 13 17 7 9 1033.7 1033.7 2.4
19/11:00pm 6.9 3.0 3.3 78 1.5 W 13 17 7 9 1033.5 1033.5 2.4
19/10:30pm 7.8 3.2 3.5 74 1.8 W 17 20 9 11 1033.4 1033.4 2.4
19/10:00pm 8.7 3.7 3.5 70 2.2 W 19 26 10 14 1033.2 1033.2 2.4
19/09:30pm 8.6 4.4 3.8 72 2.1 WSW 15 19 8 10 1033.2 1033.2 2.4
19/09:00pm 9.1 4.5 3.9 70 2.3 WSW 17 22 9 12 1032.8 1032.7 2.4
19/08:30pm 9.6 4.4 3.8 67 2.5 WSW 20 28 11 15 1032.4 1032.3 2.4
19/08:00pm 9.6 4.4 3.4 65 2.7 WSW 20 28 11 15 1031.7 1031.6 2.4
19/07:30pm 9.9 5.2 3.0 62 3.0 WSW 17 22 9 12 1031.4 1031.3 2.4
19/07:00pm 10.3 5.2 4.0 65 2.8 SW 20 28 11 15 1031.0 1030.9 2.4
19/06:30pm 9.5 5.2 3.5 66 2.6 WSW 15 20 8 11 1030.5 1030.4 2.4
19/06:00pm 10.4 5.1 3.2 61 3.1 SW 20 26 11 14 1029.9 1029.8 2.4
19/05:30pm 11.5 5.6 3.8 59 3.4 SW 24 33 13 18 1029.3 1029.3 2.4
19/05:00pm 12.7 6.2 4.9 59 3.6 SSW 28 37 15 20 1028.7 1028.7 2.4
19/04:30pm 13.4 6.2 4.8 56 4.0 SSW 32 39 17 21 1028.1 1028.1 2.4
19/04:00pm 13.9 6.4 4.5 53 4.3 SW 33 43 18 23 1027.3 1027.3 2.4
19/03:42pm 14.3 7.2 5.7 56 4.1 SW 32 50 17 27 1027.1 1027.1 2.4
19/03:30pm 14.2 10.2 6.6 60 3.7 SSE 17 37 9 20 1026.9 1026.9 2.4
19/03:00pm 12.6 9.6 9.2 80 1.7 SSE 15 22 8 12 1026.8 1026.8 2.4
19/02:30pm 11.0 7.3 8.0 82 1.5 SE 17 24 9 13 1026.5 1026.5 2.4
19/02:11pm 10.1 7.1 7.7 85 1.2 SE 13 19 7 10 1026.4 1026.4 2.4
19/02:00pm 9.4 5.3 7.7 89 0.8 SE 19 32 10 17 1026.2 1026.2 2.4
19/01:52pm 9.2 3.9 6.8 85 1.1 SE 24 35 13 19 1026.1 1026.1 1.8
19/01:30pm 10.6 5.7 8.5 87 1.0 SSE 24 30 13 16 1025.7 1025.7 0.2
19/01:00pm 14.3 9.1 7.1 62 3.5 SSW 24 44 13 24 1025.0 1025.0 0.0
19/12:30pm 15.1 8.2 6.4 56 4.2 WSW 32 44 17 24 1024.8 1024.8 0.0
19/12:00pm 15.7 9.2 8.0 60 3.9 WSW 32 46 17 25 1025.0 1025.0 0.0
19/11:30am 14.0 7.9 6.8 62 3.5 W 28 39 15 21 1025.0 1025.0 0.0
19/11:00am 14.3 9.1 7.4 63 3.4 W 24 35 13 19 1024.8 1024.8 0.0
19/10:30am 14.1 8.7 7.9 66 3.1 WSW 26 37 14 20 1024.6 1024.6 0.0
19/10:00am 13.0 7.1 7.5 69 2.7 WSW 28 39 15 21 1024.3 1024.3 0.0
19/09:30am 12.4 7.2 7.1 70 2.6 WSW 24 32 13 17 1023.9 1023.9 0.0
19/09:00am 11.9 6.7 7.4 74 2.2 W 24 35 13 19 1023.5 1023.5 3.8
19/08:30am 11.6 6.8 7.5 76 2.0 W 22 32 12 17 1022.8 1022.8 3.8
19/08:00am 10.5 6.1 7.2 80 1.6 W 20 24 11 13 1022.2 1022.2 3.8
19/07:30am 9.9 4.6 6.8 81 1.5 W 24 32 13 17 1021.3 1021.3 3.8
19/07:00am 9.8 5.6 7.4 85 1.1 W 19 26 10 14 1020.9 1020.9 3.8
19/06:30am 10.1 6.4 8.0 87 1.0 WNW 17 20 9 11 1020.2 1020.2 3.8
19/06:00am 10.1 6.5 8.2 88 0.9 W 17 24 9 13 1019.7 1019.7 3.8
19/05:30am 9.9 6.4 8.7 92 0.6 WNW 17 24 9 13 1019.4 1019.4 3.8
19/05:00am 9.9 6.9 9.1 95 0.4 NW 15 20 8 11 1018.8 1018.8 3.8
19/04:30am 9.9 6.9 9.3 96 0.3 NW 15 19 8 10 1018.4 1018.4 3.6
19/04:00am 9.9 6.9 9.1 95 0.4 WNW 15 20 8 11 1018.1 1018.1 3.4
19/03:30am 10.0 7.0 9.2 95 0.4 WNW 15 19 8 10 1017.8 1017.8 3.2
19/03:00am 10.2 7.2 9.4 95 0.4 WNW 15 24 8 13 1017.7 1017.7 3.0
19/02:30am 10.2 7.2 9.4 95 0.4 W 15 22 8 12 1017.6 1017.6 2.8
19/02:00am 10.4 6.6 9.0 91 0.7 W 19 26 10 14 1017.3 1017.3 2.6
19/01:30am 10.8 6.4 8.9 88 0.9 W 22 30 12 16 1017.2 1017.2 2.4
19/01:00am 11.1 7.1 9.0 87 1.0 W 20 28 11 15 1016.9 1016.9 2.4
19/12:30am 11.0 6.7 9.3 89 0.9 WSW 22 32 12 17 1016.4 1016.4 2.4
19/12:00am 11.3 7.6 9.6 89 0.9 W 19 30 10 16 1016.3 1016.3 2.4
 
Date/Time
EST
Temp
°C
App
Temp
°C
Dew
Point
Rel
Hum
%
Delta-T
°C
Wind Press
QNH
hPa
Press
MSL
hPa
Rain
since 9 am
mm
Dir
 
Spd
km/h
Gust
km/h
Spd
kts
Gust
kts
18/11:30pm 11.9 6.8 10.5 91 0.7 WSW 28 39 15 21 1015.8 1015.7 2.4

Other Formats:

Comma delimited format used in spreadsheet applications
http://www.bom.gov.au/fwo/IDV60801/IDV60801.94912.axf

JavaScript Object Notation format (JSON) in row-major order
http://www.bom.gov.au/fwo/IDV60801/IDV60801.94912.json